In Rescue
 
Open Full Screen Window  High Contrast Mode
Wind Gusting 00 knots
07
November 25, 2020 5:23 AM CST
Present Weather: Mist
Weather Information
Wind Direction
  020 °
Wind Speed
  07 kt (8 mph)
Wind Gust
  00 kt (0 mph)
Altimeter
29.85 in
Visibility
4 SM
Temperature
01° C
34° F
Dewpoint
01° C
34° F
Humidity
100%
1hr Rain Fall
00.00 in.
24hr Rain Fall
00.07 in.
Sky Condition
Missing
MVFR

METAR KAUM 251123Z AUTO 02007KT 4SM BR 01/01 A2985 RMK AO2

FAA Disclaimer: The data displayed is for advisory purposes only and is not to be used for flight planning or operations.
Missing Cloud Data